sensor_id;sensor_type;location;lat;lon;timestamp;P1;durP1;ratioP1;P2;durP2;ratioP2
8675;SDS011;4375;52.486;13.424;2023-04-24T00:01:15;18.40;;;5.80;;
8675;SDS011;4375;52.486;13.424;2023-04-24T00:03:42;17.50;;;5.23;;
8675;SDS011;4375;52.486;13.424;2023-04-24T00:06:07;21.60;;;5.67;;
8675;SDS011;4375;52.486;13.424;2023-04-24T00:08:34;19.10;;;6.03;;
8675;SDS011;4375;52.486;13.424;2023-04-24T00:11:00;19.50;;;5.93;;
8675;SDS011;4375;52.486;13.424;2023-04-24T00:13:26;19.17;;;6.23;;
8675;SDS011;4375;52.486;13.424;2023-04-24T00:15:53;19.03;;;6.17;;
8675;SDS011;4375;52.486;13.424;2023-04-24T00:18:19;19.03;;;5.90;;
8675;SDS011;4375;52.486;13.424;2023-04-24T00:20:45;18.10;;;5.80;;
8675;SDS011;4375;52.486;13.424;2023-04-24T00:23:11;17.40;;;5.70;;
8675;SDS011;4375;52.486;13.424;2023-04-24T00:25:37;18.33;;;5.63;;
8675;SDS011;4375;52.486;13.424;2023-04-24T00:28:03;18.43;;;5.63;;
8675;SDS011;4375;52.486;13.424;2023-04-24T00:30:29;18.53;;;5.90;;
8675;SDS011;4375;52.486;13.424;2023-04-24T00:32:55;19.57;;;6.43;;
8675;SDS011;4375;52.486;13.424;2023-04-24T00:35:20;23.80;;;6.13;;
8675;SDS011;4375;52.486;13.424;2023-04-24T00:37:46;20.37;;;6.13;;
8675;SDS011;4375;52.486;13.424;2023-04-24T00:40:12;19.07;;;5.97;;
8675;SDS011;4375;52.486;13.424;2023-04-24T00:42:38;20.70;;;6.00;;
8675;SDS011;4375;52.486;13.424;2023-04-24T00:45:05;18.60;;;5.90;;
8675;SDS011;4375;52.486;13.424;2023-04-24T00:47:32;22.20;;;6.60;;
8675;SDS011;4375;52.486;13.424;2023-04-24T00:50:00;20.27;;;6.50;;
8675;SDS011;4375;52.486;13.424;2023-04-24T00:52:27;20.67;;;6.30;;
8675;SDS011;4375;52.486;13.424;2023-04-24T00:54:53;19.60;;;5.30;;
8675;SDS011;4375;52.486;13.424;2023-04-24T00:57:19;18.80;;;5.23;;
8675;SDS011;4375;52.486;13.424;2023-04-24T00:59:45;17.70;;;5.57;;
8675;SDS011;4375;52.486;13.424;2023-04-24T01:02:11;20.10;;;6.30;;
8675;SDS011;4375;52.486;13.424;2023-04-24T01:04:38;18.93;;;6.43;;
8675;SDS011;4375;52.486;13.424;2023-04-24T01:07:04;19.83;;;6.60;;
8675;SDS011;4375;52.486;13.424;2023-04-24T01:09:35;19.50;;;6.40;;
8675;SDS011;4375;52.486;13.424;2023-04-24T01:12:06;21.70;;;5.87;;
8675;SDS011;4375;52.486;13.424;2023-04-24T01:14:32;21.10;;;6.10;;
8675;SDS011;4375;52.486;13.424;2023-04-24T01:16:58;18.97;;;6.07;;
8675;SDS011;4375;52.486;13.424;2023-04-24T01:19:24;17.80;;;5.70;;
8675;SDS011;4375;52.486;13.424;2023-04-24T01:21:50;20.30;;;5.70;;
8675;SDS011;4375;52.486;13.424;2023-04-24T01:24:18;19.70;;;6.07;;
8675;SDS011;4375;52.486;13.424;2023-04-24T01:26:46;19.03;;;6.53;;
8675;SDS011;4375;52.486;13.424;2023-04-24T01:29:12;20.27;;;6.23;;
8675;SDS011;4375;52.486;13.424;2023-04-24T01:31:38;18.20;;;5.60;;
8675;SDS011;4375;52.486;13.424;2023-04-24T01:34:05;18.00;;;5.50;;
8675;SDS011;4375;52.486;13.424;2023-04-24T01:36:32;19.67;;;6.27;;
8675;SDS011;4375;52.486;13.424;2023-04-24T01:39:00;17.60;;;6.40;;
8675;SDS011;4375;52.486;13.424;2023-04-24T01:41:25;18.70;;;6.30;;
8675;SDS011;4375;52.486;13.424;2023-04-24T01:43:51;19.10;;;6.03;;
8675;SDS011;4375;52.486;13.424;2023-04-24T01:46:18;20.33;;;6.00;;
8675;SDS011;4375;52.486;13.424;2023-04-24T01:48:44;17.90;;;6.10;;
8675;SDS011;4375;52.486;13.424;2023-04-24T01:51:10;19.27;;;6.37;;
8675;SDS011;4375;52.486;13.424;2023-04-24T01:53:36;19.13;;;6.23;;
8675;SDS011;4375;52.486;13.424;2023-04-24T01:56:01;20.33;;;6.80;;
8675;SDS011;4375;52.486;13.424;2023-04-24T01:58:28;19.77;;;6.60;;
8675;SDS011;4375;52.486;13.424;2023-04-24T02:00:55;20.07;;;6.43;;
8675;SDS011;4375;52.486;13.424;2023-04-24T02:03:22;20.90;;;6.77;;
8675;SDS011;4375;52.486;13.424;2023-04-24T02:05:48;20.77;;;7.37;;
8675;SDS011;4375;52.486;13.424;2023-04-24T02:08:13;19.10;;;6.23;;
8675;SDS011;4375;52.486;13.424;2023-04-24T02:10:39;19.40;;;6.70;;
8675;SDS011;4375;52.486;13.424;2023-04-24T02:13:05;20.00;;;6.63;;
8675;SDS011;4375;52.486;13.424;2023-04-24T02:15:30;19.80;;;6.50;;
8675;SDS011;4375;52.486;13.424;2023-04-24T02:17:56;20.10;;;6.63;;
8675;SDS011;4375;52.486;13.424;2023-04-24T02:20:21;20.37;;;7.57;;
8675;SDS011;4375;52.486;13.424;2023-04-24T02:22:47;19.43;;;6.97;;
8675;SDS011;4375;52.486;13.424;2023-04-24T02:25:13;19.20;;;6.50;;
8675;SDS011;4375;52.486;13.424;2023-04-24T02:27:38;20.40;;;7.83;;
8675;SDS011;4375;52.486;13.424;2023-04-24T02:30:04;20.43;;;7.30;;
8675;SDS011;4375;52.486;13.424;2023-04-24T02:32:30;19.60;;;6.47;;
8675;SDS011;4375;52.486;13.424;2023-04-24T02:34:56;18.07;;;6.23;;
8675;SDS011;4375;52.486;13.424;2023-04-24T02:37:22;22.67;;;7.73;;
8675;SDS011;4375;52.486;13.424;2023-04-24T02:39:47;18.73;;;6.27;;
8675;SDS011;4375;52.486;13.424;2023-04-24T02:42:13;19.60;;;6.77;;
8675;SDS011;4375;52.486;13.424;2023-04-24T02:44:38;20.87;;;6.73;;
8675;SDS011;4375;52.486;13.424;2023-04-24T02:47:04;19.97;;;6.80;;
8675;SDS011;4375;52.486;13.424;2023-04-24T02:49:30;19.80;;;6.13;;
8675;SDS011;4375;52.486;13.424;2023-04-24T02:51:55;19.53;;;7.30;;
8675;SDS011;4375;52.486;13.424;2023-04-24T02:54:21;21.83;;;7.30;;
8675;SDS011;4375;52.486;13.424;2023-04-24T02:56:47;23.27;;;6.47;;
8675;SDS011;4375;52.486;13.424;2023-04-24T02:59:12;18.80;;;6.87;;
8675;SDS011;4375;52.486;13.424;2023-04-24T03:01:38;19.53;;;6.50;;
8675;SDS011;4375;52.486;13.424;2023-04-24T03:04:03;20.20;;;6.77;;
8675;SDS011;4375;52.486;13.424;2023-04-24T03:06:29;19.73;;;6.50;;
8675;SDS011;4375;52.486;13.424;2023-04-24T03:08:56;19.13;;;6.90;;
8675;SDS011;4375;52.486;13.424;2023-04-24T03:11:21;18.90;;;6.87;;
8675;SDS011;4375;52.486;13.424;2023-04-24T03:13:47;19.10;;;6.43;;
8675;SDS011;4375;52.486;13.424;2023-04-24T03:16:13;19.53;;;5.77;;
8675;SDS011;4375;52.486;13.424;2023-04-24T03:18:38;18.40;;;6.30;;
8675;SDS011;4375;52.486;13.424;2023-04-24T03:21:04;18.63;;;6.63;;
8675;SDS011;4375;52.486;13.424;2023-04-24T03:23:30;18.90;;;7.00;;
8675;SDS011;4375;52.486;13.424;2023-04-24T03:25:55;18.27;;;6.03;;
8675;SDS011;4375;52.486;13.424;2023-04-24T03:28:21;19.30;;;6.70;;
8675;SDS011;4375;52.486;13.424;2023-04-24T03:30:47;20.03;;;6.67;;
8675;SDS011;4375;52.486;13.424;2023-04-24T03:33:12;19.20;;;6.70;;
8675;SDS011;4375;52.486;13.424;2023-04-24T03:35:38;21.07;;;6.67;;
8675;SDS011;4375;52.486;13.424;2023-04-24T03:38:04;19.40;;;6.70;;
8675;SDS011;4375;52.486;13.424;2023-04-24T03:40:29;19.13;;;6.07;;
8675;SDS011;4375;52.486;13.424;2023-04-24T03:42:55;20.07;;;7.50;;
8675;SDS011;4375;52.486;13.424;2023-04-24T03:45:21;21.40;;;7.07;;
8675;SDS011;4375;52.486;13.424;2023-04-24T03:47:46;21.27;;;7.10;;
8675;SDS011;4375;52.486;13.424;2023-04-24T03:50:12;25.73;;;7.87;;
8675;SDS011;4375;52.486;13.424;2023-04-24T03:52:38;20.27;;;6.87;;
8675;SDS011;4375;52.486;13.424;2023-04-24T03:55:03;21.33;;;7.67;;
8675;SDS011;4375;52.486;13.424;2023-04-24T03:57:29;19.30;;;6.97;;
8675;SDS011;4375;52.486;13.424;2023-04-24T03:59:55;19.30;;;6.50;;
8675;SDS011;4375;52.486;13.424;2023-04-24T04:02:21;19.30;;;6.80;;
8675;SDS011;4375;52.486;13.424;2023-04-24T04:04:46;18.47;;;6.00;;
8675;SDS011;4375;52.486;13.424;2023-04-24T04:07:12;19.90;;;6.80;;
8675;SDS011;4375;52.486;13.424;2023-04-24T04:09:38;20.30;;;6.60;;
8675;SDS011;4375;52.486;13.424;2023-04-24T04:12:03;18.60;;;5.97;;
8675;SDS011;4375;52.486;13.424;2023-04-24T04:14:29;18.60;;;6.10;;
8675;SDS011;4375;52.486;13.424;2023-04-24T04:16:55;23.73;;;6.90;;
8675;SDS011;4375;52.486;13.424;2023-04-24T04:19:21;19.67;;;6.67;;
8675;SDS011;4375;52.486;13.424;2023-04-24T04:21:46;21.00;;;6.80;;
8675;SDS011;4375;52.486;13.424;2023-04-24T04:24:17;22.73;;;6.40;;
8675;SDS011;4375;52.486;13.424;2023-04-24T04:26:42;20.13;;;6.67;;
8675;SDS011;4375;52.486;13.424;2023-04-24T04:29:11;19.93;;;6.07;;
8675;SDS011;4375;52.486;13.424;2023-04-24T04:31:37;20.10;;;6.97;;
8675;SDS011;4375;52.486;13.424;2023-04-24T04:34:03;19.30;;;6.43;;
8675;SDS011;4375;52.486;13.424;2023-04-24T04:36:29;20.90;;;6.20;;
8675;SDS011;4375;52.486;13.424;2023-04-24T04:38:54;21.17;;;6.90;;
8675;SDS011;4375;52.486;13.424;2023-04-24T04:41:21;20.27;;;6.93;;
8675;SDS011;4375;52.486;13.424;2023-04-24T04:43:47;18.67;;;5.67;;
8675;SDS011;4375;52.486;13.424;2023-04-24T04:46:13;20.40;;;6.63;;
8675;SDS011;4375;52.486;13.424;2023-04-24T04:48:39;17.40;;;5.50;;
8675;SDS011;4375;52.486;13.424;2023-04-24T04:51:05;21.70;;;6.20;;
8675;SDS011;4375;52.486;13.424;2023-04-24T04:53:31;21.30;;;6.07;;
8675;SDS011;4375;52.486;13.424;2023-04-24T04:55:56;23.87;;;6.20;;
8675;SDS011;4375;52.486;13.424;2023-04-24T04:58:22;18.70;;;6.10;;
8675;SDS011;4375;52.486;13.424;2023-04-24T05:00:48;21.00;;;6.13;;
8675;SDS011;4375;52.486;13.424;2023-04-24T05:03:14;19.50;;;5.80;;
8675;SDS011;4375;52.486;13.424;2023-04-24T05:05:40;19.07;;;6.20;;
8675;SDS011;4375;52.486;13.424;2023-04-24T05:08:06;24.07;;;6.53;;
8675;SDS011;4375;52.486;13.424;2023-04-24T05:10:32;19.90;;;5.80;;
8675;SDS011;4375;52.486;13.424;2023-04-24T05:12:58;19.07;;;5.50;;
8675;SDS011;4375;52.486;13.424;2023-04-24T05:15:23;17.87;;;5.70;;
8675;SDS011;4375;52.486;13.424;2023-04-24T05:17:49;23.23;;;6.40;;
8675;SDS011;4375;52.486;13.424;2023-04-24T05:20:15;17.67;;;4.87;;
8675;SDS011;4375;52.486;13.424;2023-04-24T05:22:41;18.73;;;5.53;;
8675;SDS011;4375;52.486;13.424;2023-04-24T05:25:07;19.83;;;6.00;;
8675;SDS011;4375;52.486;13.424;2023-04-24T05:27:33;21.13;;;5.43;;
8675;SDS011;4375;52.486;13.424;2023-04-24T05:29:59;17.67;;;5.20;;
8675;SDS011;4375;52.486;13.424;2023-04-24T05:32:24;19.30;;;5.90;;
8675;SDS011;4375;52.486;13.424;2023-04-24T05:34:50;18.03;;;4.70;;
8675;SDS011;4375;52.486;13.424;2023-04-24T05:37:16;16.77;;;4.83;;
8675;SDS011;4375;52.486;13.424;2023-04-24T05:39:41;18.80;;;5.40;;
8675;SDS011;4375;52.486;13.424;2023-04-24T05:42:07;17.33;;;5.40;;
8675;SDS011;4375;52.486;13.424;2023-04-24T05:44:33;17.73;;;4.30;;
8675;SDS011;4375;52.486;13.424;2023-04-24T05:46:59;20.07;;;4.57;;
8675;SDS011;4375;52.486;13.424;2023-04-24T05:49:25;19.07;;;3.67;;
8675;SDS011;4375;52.486;13.424;2023-04-24T05:51:51;17.30;;;3.63;;
8675;SDS011;4375;52.486;13.424;2023-04-24T05:54:16;16.00;;;3.30;;
8675;SDS011;4375;52.486;13.424;2023-04-24T05:56:42;19.40;;;3.60;;
8675;SDS011;4375;52.486;13.424;2023-04-24T05:59:08;16.07;;;3.17;;
8675;SDS011;4375;52.486;13.424;2023-04-24T06:01:34;15.43;;;3.07;;
8675;SDS011;4375;52.486;13.424;2023-04-24T06:04:01;14.97;;;3.17;;
8675;SDS011;4375;52.486;13.424;2023-04-24T06:06:27;17.67;;;2.70;;
8675;SDS011;4375;52.486;13.424;2023-04-24T06:08:53;14.33;;;2.57;;
8675;SDS011;4375;52.486;13.424;2023-04-24T06:11:19;14.63;;;2.57;;
8675;SDS011;4375;52.486;13.424;2023-04-24T06:13:45;14.50;;;2.27;;
8675;SDS011;4375;52.486;13.424;2023-04-24T06:16:10;15.57;;;2.70;;
8675;SDS011;4375;52.486;13.424;2023-04-24T06:18:36;16.17;;;3.00;;
8675;SDS011;4375;52.486;13.424;2023-04-24T06:21:02;17.53;;;2.90;;
8675;SDS011;4375;52.486;13.424;2023-04-24T06:23:28;18.63;;;2.40;;
8675;SDS011;4375;52.486;13.424;2023-04-24T06:25:54;15.73;;;2.10;;
8675;SDS011;4375;52.486;13.424;2023-04-24T06:28:20;15.97;;;2.30;;
8675;SDS011;4375;52.486;13.424;2023-04-24T06:30:45;16.60;;;2.23;;
8675;SDS011;4375;52.486;13.424;2023-04-24T06:33:11;14.63;;;2.43;;
8675;SDS011;4375;52.486;13.424;2023-04-24T06:35:36;15.03;;;2.17;;
8675;SDS011;4375;52.486;13.424;2023-04-24T06:38:03;16.00;;;2.50;;
8675;SDS011;4375;52.486;13.424;2023-04-24T06:40:28;14.80;;;2.23;;
8675;SDS011;4375;52.486;13.424;2023-04-24T06:42:54;15.90;;;2.03;;
8675;SDS011;4375;52.486;13.424;2023-04-24T06:45:20;15.60;;;2.13;;
8675;SDS011;4375;52.486;13.424;2023-04-24T06:47:46;14.70;;;2.20;;
8675;SDS011;4375;52.486;13.424;2023-04-24T06:50:15;15.00;;;2.40;;
8675;SDS011;4375;52.486;13.424;2023-04-24T06:52:41;14.80;;;2.07;;
8675;SDS011;4375;52.486;13.424;2023-04-24T06:55:07;15.40;;;2.10;;
8675;SDS011;4375;52.486;13.424;2023-04-24T06:57:33;14.20;;;1.97;;
8675;SDS011;4375;52.486;13.424;2023-04-24T06:59:58;14.03;;;1.70;;
8675;SDS011;4375;52.486;13.424;2023-04-24T07:02:24;13.97;;;1.93;;
8675;SDS011;4375;52.486;13.424;2023-04-24T07:04:50;13.87;;;1.90;;
8675;SDS011;4375;52.486;13.424;2023-04-24T07:07:15;14.10;;;1.47;;
8675;SDS011;4375;52.486;13.424;2023-04-24T07:09:41;13.90;;;1.47;;
8675;SDS011;4375;52.486;13.424;2023-04-24T07:12:10;14.60;;;1.60;;
8675;SDS011;4375;52.486;13.424;2023-04-24T07:14:39;13.57;;;1.80;;
8675;SDS011;4375;52.486;13.424;2023-04-24T07:17:45;15.40;;;1.60;;
8675;SDS011;4375;52.486;13.424;2023-04-24T07:20:11;14.80;;;1.63;;
8675;SDS011;4375;52.486;13.424;2023-04-24T07:22:37;15.03;;;1.70;;
8675;SDS011;4375;52.486;13.424;2023-04-24T07:25:03;15.47;;;2.40;;
8675;SDS011;4375;52.486;13.424;2023-04-24T07:27:30;21.37;;;3.00;;
8675;SDS011;4375;52.486;13.424;2023-04-24T07:29:55;17.23;;;4.27;;
8675;SDS011;4375;52.486;13.424;2023-04-24T07:32:21;15.30;;;1.70;;
8675;SDS011;4375;52.486;13.424;2023-04-24T07:34:46;13.80;;;1.47;;
8675;SDS011;4375;52.486;13.424;2023-04-24T07:37:12;15.50;;;1.50;;
8675;SDS011;4375;52.486;13.424;2023-04-24T07:39:38;13.80;;;1.47;;
8675;SDS011;4375;52.486;13.424;2023-04-24T07:42:03;13.47;;;1.27;;
8675;SDS011;4375;52.486;13.424;2023-04-24T07:44:29;13.70;;;1.10;;
8675;SDS011;4375;52.486;13.424;2023-04-24T07:46:55;13.50;;;1.10;;
8675;SDS011;4375;52.486;13.424;2023-04-24T07:49:21;14.20;;;1.10;;
8675;SDS011;4375;52.486;13.424;2023-04-24T07:51:47;16.00;;;1.37;;
8675;SDS011;4375;52.486;13.424;2023-04-24T07:54:12;13.70;;;0.97;;
8675;SDS011;4375;52.486;13.424;2023-04-24T07:56:38;13.37;;;1.00;;
8675;SDS011;4375;52.486;13.424;2023-04-24T07:59:04;13.37;;;1.10;;
8675;SDS011;4375;52.486;13.424;2023-04-24T08:01:30;14.53;;;1.10;;
8675;SDS011;4375;52.486;13.424;2023-04-24T08:03:56;14.30;;;1.30;;
8675;SDS011;4375;52.486;13.424;2023-04-24T08:06:22;13.20;;;0.90;;
8675;SDS011;4375;52.486;13.424;2023-04-24T08:08:48;13.57;;;1.00;;
8675;SDS011;4375;52.486;13.424;2023-04-24T08:11:13;13.50;;;1.00;;
8675;SDS011;4375;52.486;13.424;2023-04-24T08:13:39;13.40;;;1.00;;
8675;SDS011;4375;52.486;13.424;2023-04-24T08:16:05;13.43;;;1.30;;
8675;SDS011;4375;52.486;13.424;2023-04-24T08:18:30;15.30;;;1.80;;
8675;SDS011;4375;52.486;13.424;2023-04-24T08:20:56;13.70;;;1.40;;
8675;SDS011;4375;52.486;13.424;2023-04-24T08:23:26;13.43;;;1.30;;
8675;SDS011;4375;52.486;13.424;2023-04-24T08:25:52;13.77;;;1.20;;
8675;SDS011;4375;52.486;13.424;2023-04-24T08:28:17;13.67;;;1.40;;
8675;SDS011;4375;52.486;13.424;2023-04-24T08:30:45;13.77;;;1.43;;
8675;SDS011;4375;52.486;13.424;2023-04-24T08:33:12;14.13;;;1.40;;
8675;SDS011;4375;52.486;13.424;2023-04-24T08:35:38;14.00;;;1.50;;
8675;SDS011;4375;52.486;13.424;2023-04-24T08:38:04;13.57;;;1.23;;
8675;SDS011;4375;52.486;13.424;2023-04-24T08:40:30;13.20;;;1.17;;
8675;SDS011;4375;52.486;13.424;2023-04-24T08:43:00;13.80;;;1.30;;
8675;SDS011;4375;52.486;13.424;2023-04-24T08:45:25;13.30;;;1.30;;
8675;SDS011;4375;52.486;13.424;2023-04-24T08:47:54;13.47;;;1.10;;
8675;SDS011;4375;52.486;13.424;2023-04-24T08:50:20;14.13;;;1.20;;
8675;SDS011;4375;52.486;13.424;2023-04-24T08:52:49;13.80;;;1.37;;
8675;SDS011;4375;52.486;13.424;2023-04-24T08:55:15;13.03;;;0.83;;
8675;SDS011;4375;52.486;13.424;2023-04-24T08:57:43;13.80;;;0.90;;
8675;SDS011;4375;52.486;13.424;2023-04-24T09:00:10;13.70;;;1.20;;
8675;SDS011;4375;52.486;13.424;2023-04-24T09:02:38;13.13;;;0.90;;
8675;SDS011;4375;52.486;13.424;2023-04-24T09:05:07;14.97;;;1.37;;
8675;SDS011;4375;52.486;13.424;2023-04-24T09:07:34;15.70;;;1.60;;
8675;SDS011;4375;52.486;13.424;2023-04-24T09:10:02;14.63;;;1.17;;
8675;SDS011;4375;52.486;13.424;2023-04-24T09:12:27;13.50;;;1.07;;
8675;SDS011;4375;52.486;13.424;2023-04-24T09:14:53;17.63;;;4.50;;
8675;SDS011;4375;52.486;13.424;2023-04-24T09:17:20;20.00;;;4.20;;
8675;SDS011;4375;52.486;13.424;2023-04-24T09:19:47;15.73;;;1.50;;
8675;SDS011;4375;52.486;13.424;2023-04-24T09:22:13;14.20;;;1.43;;
8675;SDS011;4375;52.486;13.424;2023-04-24T09:24:40;14.40;;;1.40;;
8675;SDS011;4375;52.486;13.424;2023-04-24T09:27:06;14.20;;;1.20;;
8675;SDS011;4375;52.486;13.424;2023-04-24T09:29:32;14.70;;;1.60;;
8675;SDS011;4375;52.486;13.424;2023-04-24T09:31:58;14.00;;;1.20;;
8675;SDS011;4375;52.486;13.424;2023-04-24T09:34:27;13.33;;;1.20;;
8675;SDS011;4375;52.486;13.424;2023-04-24T09:36:53;13.60;;;1.40;;
8675;SDS011;4375;52.486;13.424;2023-04-24T09:39:19;14.90;;;1.30;;
8675;SDS011;4375;52.486;13.424;2023-04-24T09:44:16;13.90;;;1.40;;
8675;SDS011;4375;52.486;13.424;2023-04-24T09:46:44;13.30;;;1.20;;
8675;SDS011;4375;52.486;13.424;2023-04-24T09:49:14;13.80;;;1.27;;
8675;SDS011;4375;52.486;13.424;2023-04-24T09:51:41;13.50;;;1.30;;
8675;SDS011;4375;52.486;13.424;2023-04-24T09:54:14;13.80;;;1.47;;
8675;SDS011;4375;52.486;13.424;2023-04-24T09:56:44;14.30;;;1.30;;
8675;SDS011;4375;52.486;13.424;2023-04-24T09:59:11;14.40;;;1.40;;
8675;SDS011;4375;52.486;13.424;2023-04-24T10:01:38;13.27;;;1.00;;
8675;SDS011;4375;52.486;13.424;2023-04-24T10:04:14;19.13;;;1.40;;
8675;SDS011;4375;52.486;13.424;2023-04-24T10:06:48;13.70;;;1.37;;
8675;SDS011;4375;52.486;13.424;2023-04-24T10:09:14;13.70;;;1.30;;
8675;SDS011;4375;52.486;13.424;2023-04-24T10:11:48;15.83;;;1.83;;
8675;SDS011;4375;52.486;13.424;2023-04-24T10:14:15;14.10;;;1.20;;
8675;SDS011;4375;52.486;13.424;2023-04-24T10:16:43;13.50;;;1.43;;
8675;SDS011;4375;52.486;13.424;2023-04-24T10:19:12;14.70;;;1.27;;
8675;SDS011;4375;52.486;13.424;2023-04-24T10:21:38;13.50;;;1.30;;
8675;SDS011;4375;52.486;13.424;2023-04-24T10:24:18;15.90;;;1.30;;
8675;SDS011;4375;52.486;13.424;2023-04-24T10:26:46;16.37;;;1.40;;
8675;SDS011;4375;52.486;13.424;2023-04-24T10:29:14;15.60;;;1.23;;
8675;SDS011;4375;52.486;13.424;2023-04-24T10:31:40;14.10;;;1.20;;
8675;SDS011;4375;52.486;13.424;2023-04-24T10:34:07;15.17;;;1.50;;
8675;SDS011;4375;52.486;13.424;2023-04-24T10:36:34;13.40;;;1.13;;
8675;SDS011;4375;52.486;13.424;2023-04-24T10:39:06;15.67;;;1.20;;
8675;SDS011;4375;52.486;13.424;2023-04-24T10:41:36;14.20;;;1.37;;
8675;SDS011;4375;52.486;13.424;2023-04-24T10:46:39;13.23;;;1.00;;
8675;SDS011;4375;52.486;13.424;2023-04-24T10:49:08;14.10;;;1.10;;
8675;SDS011;4375;52.486;13.424;2023-04-24T10:51:47;15.60;;;1.80;;
8675;SDS011;4375;52.486;13.424;2023-04-24T10:54:21;14.00;;;1.37;;
8675;SDS011;4375;52.486;13.424;2023-04-24T10:56:47;13.83;;;1.60;;
8675;SDS011;4375;52.486;13.424;2023-04-24T10:59:13;14.53;;;1.30;;
8675;SDS011;4375;52.486;13.424;2023-04-24T11:01:53;14.00;;;1.50;;
8675;SDS011;4375;52.486;13.424;2023-04-24T11:04:29;16.13;;;1.20;;
8675;SDS011;4375;52.486;13.424;2023-04-24T11:06:56;13.47;;;1.10;;
8675;SDS011;4375;52.486;13.424;2023-04-24T11:09:22;15.13;;;1.23;;
8675;SDS011;4375;52.486;13.424;2023-04-24T11:11:51;14.40;;;1.47;;
8675;SDS011;4375;52.486;13.424;2023-04-24T11:15:12;14.77;;;2.33;;
8675;SDS011;4375;52.486;13.424;2023-04-24T11:17:36;13.30;;;1.13;;
8675;SDS011;4375;52.486;13.424;2023-04-24T11:20:06;14.20;;;1.50;;
8675;SDS011;4375;52.486;13.424;2023-04-24T11:22:34;13.40;;;1.20;;
8675;SDS011;4375;52.486;13.424;2023-04-24T11:25:02;15.20;;;1.30;;
8675;SDS011;4375;52.486;13.424;2023-04-24T11:27:31;17.70;;;1.50;;
8675;SDS011;4375;52.486;13.424;2023-04-24T11:30:04;13.37;;;1.40;;
8675;SDS011;4375;52.486;13.424;2023-04-24T11:35:10;14.97;;;1.50;;
8675;SDS011;4375;52.486;13.424;2023-04-24T11:37:43;16.27;;;2.30;;
8675;SDS011;4375;52.486;13.424;2023-04-24T11:40:16;16.23;;;2.47;;
8675;SDS011;4375;52.486;13.424;2023-04-24T11:42:46;14.80;;;2.30;;
8675;SDS011;4375;52.486;13.424;2023-04-24T11:45:17;19.43;;;2.10;;
8675;SDS011;4375;52.486;13.424;2023-04-24T11:47:44;16.87;;;2.00;;
8675;SDS011;4375;52.486;13.424;2023-04-24T11:50:16;15.37;;;1.90;;
8675;SDS011;4375;52.486;13.424;2023-04-24T11:52:44;14.00;;;1.90;;
8675;SDS011;4375;52.486;13.424;2023-04-24T11:57:46;14.67;;;1.90;;
8675;SDS011;4375;52.486;13.424;2023-04-24T12:02:46;14.20;;;2.10;;
8675;SDS011;4375;52.486;13.424;2023-04-24T12:05:24;14.07;;;1.83;;
8675;SDS011;4375;52.486;13.424;2023-04-24T12:07:51;13.87;;;1.63;;
8675;SDS011;4375;52.486;13.424;2023-04-24T12:10:21;13.90;;;1.60;;
8675;SDS011;4375;52.486;13.424;2023-04-24T12:12:55;15.50;;;2.10;;
8675;SDS011;4375;52.486;13.424;2023-04-24T12:15:21;15.30;;;1.77;;
8675;SDS011;4375;52.486;13.424;2023-04-24T12:17:47;14.60;;;2.13;;
8675;SDS011;4375;52.486;13.424;2023-04-24T12:20:15;14.60;;;2.03;;
8675;SDS011;4375;52.486;13.424;2023-04-24T12:22:44;18.40;;;1.53;;
8675;SDS011;4375;52.486;13.424;2023-04-24T12:25:16;15.87;;;1.47;;
8675;SDS011;4375;52.486;13.424;2023-04-24T12:27:44;14.63;;;1.87;;
8675;SDS011;4375;52.486;13.424;2023-04-24T12:30:13;14.23;;;1.60;;
8675;SDS011;4375;52.486;13.424;2023-04-24T12:32:41;14.20;;;1.60;;
8675;SDS011;4375;52.486;13.424;2023-04-24T12:35:11;13.70;;;1.23;;
8675;SDS011;4375;52.486;13.424;2023-04-24T12:37:37;14.07;;;1.40;;
8675;SDS011;4375;52.486;13.424;2023-04-24T12:40:07;16.20;;;1.60;;
8675;SDS011;4375;52.486;13.424;2023-04-24T12:42:35;13.90;;;1.37;;
8675;SDS011;4375;52.486;13.424;2023-04-24T12:45:07;14.00;;;1.20;;
8675;SDS011;4375;52.486;13.424;2023-04-24T12:47:33;13.53;;;1.20;;
8675;SDS011;4375;52.486;13.424;2023-04-24T12:50:00;14.10;;;1.40;;
8675;SDS011;4375;52.486;13.424;2023-04-24T12:52:28;13.73;;;1.40;;
8675;SDS011;4375;52.486;13.424;2023-04-24T12:54:58;14.10;;;1.53;;
8675;SDS011;4375;52.486;13.424;2023-04-24T12:57:26;13.70;;;1.20;;
8675;SDS011;4375;52.486;13.424;2023-04-24T12:59:56;13.67;;;1.40;;
8675;SDS011;4375;52.486;13.424;2023-04-24T13:02:23;14.10;;;1.20;;
8675;SDS011;4375;52.486;13.424;2023-04-24T13:04:50;13.90;;;1.33;;
8675;SDS011;4375;52.486;13.424;2023-04-24T13:07:16;13.57;;;1.00;;
8675;SDS011;4375;52.486;13.424;2023-04-24T13:09:42;13.37;;;1.17;;
8675;SDS011;4375;52.486;13.424;2023-04-24T13:12:09;13.70;;;1.30;;
8675;SDS011;4375;52.486;13.424;2023-04-24T13:14:36;15.60;;;1.10;;
8675;SDS011;4375;52.486;13.424;2023-04-24T13:17:02;14.10;;;1.07;;
8675;SDS011;4375;52.486;13.424;2023-04-24T13:19:28;14.60;;;1.30;;
8675;SDS011;4375;52.486;13.424;2023-04-24T13:21:54;14.57;;;1.20;;
8675;SDS011;4375;52.486;13.424;2023-04-24T13:24:21;15.00;;;1.50;;
8675;SDS011;4375;52.486;13.424;2023-04-24T13:26:51;13.37;;;1.03;;
8675;SDS011;4375;52.486;13.424;2023-04-24T13:29:17;14.27;;;1.10;;
8675;SDS011;4375;52.486;13.424;2023-04-24T13:31:43;13.70;;;1.40;;
8675;SDS011;4375;52.486;13.424;2023-04-24T13:34:09;14.40;;;1.33;;
8675;SDS011;4375;52.486;13.424;2023-04-24T13:36:35;14.50;;;1.23;;
8675;SDS011;4375;52.486;13.424;2023-04-24T13:39:01;13.83;;;1.33;;
8675;SDS011;4375;52.486;13.424;2023-04-24T13:41:29;19.13;;;1.03;;
8675;SDS011;4375;52.486;13.424;2023-04-24T13:43:55;19.43;;;2.90;;
8675;SDS011;4375;52.486;13.424;2023-04-24T13:46:20;14.27;;;1.10;;
8675;SDS011;4375;52.486;13.424;2023-04-24T13:48:46;12.93;;;0.83;;
8675;SDS011;4375;52.486;13.424;2023-04-24T13:51:12;13.57;;;1.33;;
8675;SDS011;4375;52.486;13.424;2023-04-24T13:53:37;14.47;;;1.40;;
8675;SDS011;4375;52.486;13.424;2023-04-24T13:56:04;13.63;;;1.70;;
8675;SDS011;4375;52.486;13.424;2023-04-24T13:58:30;13.40;;;1.50;;
8675;SDS011;4375;52.486;13.424;2023-04-24T14:00:57;19.23;;;1.27;;
8675;SDS011;4375;52.486;13.424;2023-04-24T14:03:23;14.77;;;1.67;;
8675;SDS011;4375;52.486;13.424;2023-04-24T14:05:48;13.37;;;1.40;;
8675;SDS011;4375;52.486;13.424;2023-04-24T14:08:14;14.60;;;1.37;;
8675;SDS011;4375;52.486;13.424;2023-04-24T14:10:40;13.67;;;1.20;;
8675;SDS011;4375;52.486;13.424;2023-04-24T14:13:07;13.03;;;1.10;;
8675;SDS011;4375;52.486;13.424;2023-04-24T14:15:33;14.57;;;1.40;;
8675;SDS011;4375;52.486;13.424;2023-04-24T14:18:00;14.50;;;1.27;;
8675;SDS011;4375;52.486;13.424;2023-04-24T14:20:26;13.30;;;1.40;;
8675;SDS011;4375;52.486;13.424;2023-04-24T14:22:52;19.10;;;2.17;;
8675;SDS011;4375;52.486;13.424;2023-04-24T14:25:18;13.77;;;1.27;;
8675;SDS011;4375;52.486;13.424;2023-04-24T14:27:43;13.23;;;1.20;;
8675;SDS011;4375;52.486;13.424;2023-04-24T14:30:10;14.07;;;1.43;;
8675;SDS011;4375;52.486;13.424;2023-04-24T14:32:38;14.60;;;1.20;;
8675;SDS011;4375;52.486;13.424;2023-04-24T14:35:04;13.53;;;1.30;;
8675;SDS011;4375;52.486;13.424;2023-04-24T14:37:31;13.43;;;1.20;;
8675;SDS011;4375;52.486;13.424;2023-04-24T14:39:56;15.83;;;1.47;;
8675;SDS011;4375;52.486;13.424;2023-04-24T14:42:22;13.43;;;1.33;;
8675;SDS011;4375;52.486;13.424;2023-04-24T14:44:48;13.37;;;1.27;;
8675;SDS011;4375;52.486;13.424;2023-04-24T14:47:13;13.57;;;1.30;;
8675;SDS011;4375;52.486;13.424;2023-04-24T14:49:39;13.97;;;1.40;;
8675;SDS011;4375;52.486;13.424;2023-04-24T14:52:04;16.50;;;1.40;;
8675;SDS011;4375;52.486;13.424;2023-04-24T14:54:30;13.43;;;1.40;;
8675;SDS011;4375;52.486;13.424;2023-04-24T14:56:56;13.07;;;1.20;;
8675;SDS011;4375;52.486;13.424;2023-04-24T14:59:22;14.80;;;1.70;;